createdAt,value
2023-02-02T00:02:01.956Z,7.50
2023-02-02T00:04:34.189Z,7.46
2023-02-02T00:07:02.020Z,7.41
2023-02-02T00:09:30.760Z,7.44
2023-02-02T00:11:58.616Z,7.44
2023-02-02T00:14:25.582Z,7.42
2023-02-02T00:16:53.917Z,7.44
2023-02-02T00:19:26.436Z,7.43
2023-02-02T00:21:54.195Z,7.40
2023-02-02T00:24:21.163Z,7.38
2023-02-02T00:26:51.431Z,7.39
2023-02-02T00:29:30.168Z,7.42
2023-02-02T00:31:57.385Z,7.34
2023-02-02T00:34:24.368Z,7.33
2023-02-02T00:36:51.575Z,7.35
2023-02-02T00:39:27.949Z,7.36
2023-02-02T00:41:54.943Z,7.38
2023-02-02T00:44:40.549Z,7.41
2023-02-02T00:47:07.134Z,7.41
2023-02-02T00:49:33.745Z,7.44
2023-02-02T00:52:00.598Z,7.43
2023-02-02T00:54:27.809Z,7.45
2023-02-02T00:56:54.457Z,7.43
2023-02-02T00:59:21.118Z,7.35
2023-02-02T01:01:47.820Z,7.37
2023-02-02T01:04:14.563Z,7.41
2023-02-02T01:06:42.280Z,7.42
2023-02-02T01:09:09.099Z,7.37
2023-02-02T01:11:35.819Z,7.36
2023-02-02T01:14:02.554Z,7.41
2023-02-02T01:16:29.535Z,7.35
2023-02-02T01:18:56.304Z,7.42
2023-02-02T01:21:23.129Z,7.35
2023-02-02T01:23:49.966Z,7.34
2023-02-02T01:26:17.432Z,7.29
2023-02-02T01:28:44.671Z,7.31
2023-02-02T01:31:15.590Z,7.33
2023-02-02T01:33:43.953Z,7.32
2023-02-02T01:36:14.377Z,7.33
2023-02-02T01:38:42.444Z,7.25
2023-02-02T01:41:13.903Z,7.26
2023-02-02T01:43:43.238Z,7.26
2023-02-02T01:46:23.954Z,7.26
2023-02-02T01:49:13.688Z,7.29
2023-02-02T01:51:47.281Z,7.18
2023-02-02T01:54:21.640Z,7.26
2023-02-02T01:56:55.872Z,7.23
2023-02-02T01:59:22.835Z,7.23
2023-02-02T02:01:53.505Z,7.23
2023-02-02T02:08:19.242Z,7.21
2023-02-02T02:10:46.536Z,7.17
2023-02-02T02:13:17.332Z,7.24
2023-02-02T02:16:20.258Z,7.25
2023-02-02T02:19:17.120Z,7.26
2023-02-02T02:22:12.930Z,7.31
2023-02-02T02:25:26.200Z,7.23
2023-02-02T02:28:00.888Z,7.21
2023-02-02T02:30:33.984Z,7.23
2023-02-02T02:33:27.928Z,7.21
2023-02-02T02:36:07.078Z,7.21
2023-02-02T02:38:51.569Z,7.18
2023-02-02T02:41:25.396Z,7.20
2023-02-02T02:44:07.564Z,7.16
2023-02-02T02:46:35.829Z,7.22
2023-02-02T02:49:23.595Z,7.22
2023-02-02T02:51:54.905Z,7.25
2023-02-02T02:54:35.065Z,7.21
2023-02-02T02:57:17.191Z,7.24
2023-02-02T03:00:07.375Z,7.25
2023-02-02T03:03:08.396Z,7.23
2023-02-02T03:06:00.766Z,7.22
2023-02-02T03:08:44.291Z,7.22
2023-02-02T03:11:12.959Z,7.22
2023-02-02T03:13:41.257Z,7.25
2023-02-02T03:16:11.343Z,7.22
2023-02-02T03:18:57.181Z,7.24
2023-02-02T03:21:23.983Z,7.24
2023-02-02T03:23:51.150Z,7.30
2023-02-02T03:26:18.136Z,7.28
2023-02-02T03:28:52.603Z,7.30
2023-02-02T03:31:22.323Z,7.25
2023-02-02T03:33:49.387Z,7.23
2023-02-02T03:36:16.219Z,7.28
2023-02-02T03:38:43.176Z,7.32
2023-02-02T03:41:10.258Z,7.25
2023-02-02T03:43:37.058Z,7.23
2023-02-02T03:46:05.954Z,7.22
2023-02-02T03:48:36.989Z,7.24
2023-02-02T03:51:19.375Z,7.21
2023-02-02T03:53:50.863Z,7.28
2023-02-02T03:56:19.787Z,7.26
2023-02-02T03:58:56.889Z,7.26
2023-02-02T04:01:33.002Z,7.25
2023-02-02T04:03:59.813Z,7.24
2023-02-02T04:06:27.383Z,7.26
2023-02-02T04:08:58.203Z,7.26
2023-02-02T04:11:28.788Z,7.23
2023-02-02T04:13:55.374Z,7.28
2023-02-02T04:16:23.152Z,7.25
2023-02-02T04:18:50.149Z,7.24
2023-02-02T04:21:16.786Z,7.24
2023-02-02T04:23:43.651Z,7.26
2023-02-02T04:26:10.591Z,7.28
2023-02-02T04:28:37.533Z,7.21
2023-02-02T04:31:06.471Z,7.26
2023-02-02T04:33:35.013Z,7.23
2023-02-02T04:36:02.006Z,7.25
2023-02-02T04:38:28.699Z,7.23
2023-02-02T04:40:58.849Z,7.19
2023-02-02T04:43:30.128Z,7.21
2023-02-02T04:45:57.661Z,7.19
2023-02-02T04:48:30.871Z,7.21
2023-02-02T04:51:01.917Z,7.20
2023-02-02T04:53:30.483Z,7.14
2023-02-02T04:55:57.666Z,7.18
2023-02-02T04:58:27.698Z,7.15
2023-02-02T05:00:54.532Z,7.11
2023-02-02T05:03:23.220Z,7.13
2023-02-02T05:05:59.173Z,7.16
2023-02-02T05:08:25.959Z,7.14
2023-02-02T05:10:54.949Z,7.12
2023-02-02T05:13:32.179Z,7.14
2023-02-02T05:16:01.139Z,7.15
2023-02-02T05:18:31.716Z,7.15
2023-02-02T05:21:09.144Z,7.15
2023-02-02T05:23:36.054Z,7.18
2023-02-02T05:26:04.135Z,7.18
2023-02-02T05:28:30.899Z,7.16
2023-02-02T05:30:57.693Z,7.16
2023-02-02T05:33:24.650Z,7.17
2023-02-02T05:35:54.321Z,7.13
2023-02-02T05:38:28.576Z,7.14
2023-02-02T05:40:55.787Z,7.20
2023-02-02T05:43:26.256Z,7.10
2023-02-02T05:45:57.058Z,7.18
2023-02-02T05:48:23.750Z,7.13
2023-02-02T05:50:59.024Z,7.13
2023-02-02T05:53:30.394Z,7.15
2023-02-02T05:56:00.496Z,7.18
2023-02-02T05:58:28.336Z,7.17
2023-02-02T06:00:59.050Z,7.12
2023-02-02T06:03:26.075Z,7.11
2023-02-02T06:05:53.596Z,7.02
2023-02-02T06:08:20.666Z,7.05
2023-02-02T06:10:52.356Z,7.02
2023-02-02T06:13:19.186Z,7.02
2023-02-02T06:15:50.304Z,7.01
2023-02-02T06:18:27.555Z,6.99
2023-02-02T06:21:01.832Z,6.96
2023-02-02T06:23:28.925Z,7.03
2023-02-02T06:25:55.985Z,7.02
2023-02-02T06:28:23.282Z,7.05
2023-02-02T06:31:05.862Z,7.01
2023-02-02T06:33:33.104Z,6.99
2023-02-02T06:36:04.794Z,7.06
2023-02-02T06:38:32.759Z,7.04
2023-02-02T06:41:00.572Z,7.00
2023-02-02T06:43:31.102Z,7.03
2023-02-02T06:46:02.923Z,7.06
2023-02-02T06:48:30.637Z,7.07
2023-02-02T06:51:29.492Z,7.07
2023-02-02T06:54:08.402Z,7.03
2023-02-02T06:56:35.350Z,7.03
2023-02-02T06:59:02.377Z,7.07
2023-02-02T07:01:29.065Z,7.08
2023-02-02T07:04:04.498Z,7.06
2023-02-02T07:06:31.354Z,7.02
2023-02-02T07:09:02.927Z,7.02
2023-02-02T07:11:37.281Z,7.05
2023-02-02T07:14:06.518Z,6.99
2023-02-02T07:16:33.776Z,6.98
2023-02-02T07:19:05.609Z,6.99
2023-02-02T07:21:36.441Z,7.07
2023-02-02T07:24:05.529Z,7.02
2023-02-02T07:26:35.248Z,7.16
2023-02-02T07:29:08.547Z,7.10
2023-02-02T07:31:36.747Z,7.07
2023-02-02T07:34:06.719Z,7.08
2023-02-02T07:36:33.707Z,7.07
2023-02-02T07:39:04.114Z,7.14
2023-02-02T07:41:35.470Z,7.14
2023-02-02T07:44:02.638Z,7.14
2023-02-02T07:46:29.976Z,7.16
2023-02-02T07:48:57.779Z,7.19
2023-02-02T07:51:25.612Z,7.14
2023-02-02T07:53:55.098Z,7.14
2023-02-02T07:56:26.835Z,7.19
2023-02-02T07:58:55.348Z,7.19
2023-02-02T08:01:23.658Z,7.26
2023-02-02T08:03:50.795Z,7.23
2023-02-02T08:06:30.409Z,7.26
2023-02-02T08:09:01.247Z,7.22
2023-02-02T08:11:29.013Z,7.29
2023-02-02T08:13:59.664Z,7.26
2023-02-02T08:16:28.068Z,7.32
2023-02-02T08:18:55.227Z,7.28
2023-02-02T08:21:22.682Z,7.22
2023-02-02T08:23:49.981Z,7.37
2023-02-02T08:26:28.099Z,7.30
2023-02-02T08:28:57.894Z,7.34
2023-02-02T08:31:30.833Z,7.33
2023-02-02T08:34:00.619Z,7.29
2023-02-02T08:36:30.204Z,7.31
2023-02-02T08:39:03.035Z,7.35
2023-02-02T08:41:34.022Z,7.35
2023-02-02T08:44:04.459Z,7.36
2023-02-02T08:46:31.296Z,7.45
2023-02-02T08:48:59.220Z,7.38
2023-02-02T08:51:26.144Z,7.39
2023-02-02T08:53:53.170Z,7.41
2023-02-02T08:56:21.624Z,7.36
2023-02-02T08:58:58.204Z,7.36
2023-02-02T09:01:31.264Z,7.42
2023-02-02T09:04:07.862Z,7.41
2023-02-02T09:06:40.240Z,7.41
2023-02-02T09:09:09.944Z,7.46
2023-02-02T09:11:37.069Z,7.55
2023-02-02T09:14:06.930Z,7.43
2023-02-02T09:16:35.344Z,7.45
2023-02-02T09:19:02.953Z,7.44
2023-02-02T09:21:29.866Z,7.45
2023-02-02T09:23:57.505Z,7.50
2023-02-02T09:26:32.566Z,7.45
2023-02-02T09:29:02.695Z,7.46
2023-02-02T09:31:33.135Z,7.53
2023-02-02T09:34:14.012Z,7.46
2023-02-02T09:36:41.812Z,7.56
2023-02-02T09:39:11.025Z,7.59
2023-02-02T09:41:37.568Z,7.66
2023-02-02T09:44:50.957Z,7.84
2023-02-02T09:47:28.737Z,7.92
2023-02-02T09:49:58.713Z,7.94
2023-02-02T09:52:30.383Z,8.14
2023-02-02T09:55:06.541Z,7.95
2023-02-02T09:57:44.437Z,8.12
2023-02-02T10:00:31.457Z,7.93
2023-02-02T10:03:04.666Z,8.00
2023-02-02T10:05:47.190Z,8.05
2023-02-02T10:08:33.892Z,8.15
2023-02-02T10:11:12.818Z,8.07
2023-02-02T10:13:43.827Z,8.13
2023-02-02T10:16:17.542Z,8.25
2023-02-02T10:19:06.514Z,8.30
2023-02-02T10:22:00.317Z,8.64
2023-02-02T10:24:29.884Z,8.47
2023-02-02T10:27:04.509Z,8.59
2023-02-02T10:29:49.218Z,8.76
2023-02-02T10:32:23.566Z,8.76
2023-02-02T10:35:17.717Z,8.73
2023-02-02T10:38:10.542Z,8.53
2023-02-02T10:41:17.247Z,8.56
2023-02-02T10:44:15.577Z,8.53
2023-02-02T10:46:56.092Z,8.72
2023-02-02T10:49:38.344Z,8.78
2023-02-02T10:52:17.296Z,8.73
2023-02-02T10:54:57.727Z,8.63
2023-02-02T10:57:53.377Z,8.66
2023-02-02T11:00:31.241Z,8.60
2023-02-02T11:02:59.145Z,8.75
2023-02-02T11:05:50.334Z,8.73
2023-02-02T11:08:40.682Z,8.64
2023-02-02T11:11:55.308Z,8.67
2023-02-02T11:14:55.453Z,8.63
2023-02-02T11:17:29.973Z,8.68
2023-02-02T11:19:59.779Z,8.52
2023-02-02T11:22:35.452Z,8.58
2023-02-02T11:25:27.829Z,8.81
2023-02-02T11:27:56.321Z,8.54
2023-02-02T11:30:36.010Z,8.73
2023-02-02T11:33:29.832Z,8.64
2023-02-02T11:35:59.686Z,8.63
2023-02-02T11:38:28.611Z,8.61
2023-02-02T11:40:58.578Z,8.72
2023-02-02T11:43:31.161Z,8.80
2023-02-02T11:46:06.470Z,8.75
2023-02-02T11:48:38.280Z,8.69
2023-02-02T11:51:08.257Z,8.88
2023-02-02T11:53:46.920Z,8.59
2023-02-02T11:56:27.946Z,8.71
2023-02-02T11:59:03.956Z,8.76
2023-02-02T12:01:40.186Z,8.70
2023-02-02T12:04:16.967Z,8.48
2023-02-02T12:06:44.209Z,8.51
2023-02-02T12:09:23.255Z,8.59
2023-02-02T12:12:07.795Z,8.54
2023-02-02T12:14:43.229Z,8.49
2023-02-02T12:17:39.046Z,8.41
2023-02-02T12:20:33.971Z,8.52
2023-02-02T12:23:42.915Z,8.42
2023-02-02T12:26:22.489Z,8.34
2023-02-02T12:29:05.025Z,8.33
2023-02-02T12:31:52.210Z,8.24
2023-02-02T12:34:50.132Z,8.27
2023-02-02T12:37:41.595Z,8.21
2023-02-02T12:40:17.474Z,8.10
2023-02-02T12:43:00.527Z,7.86
2023-02-02T12:45:35.171Z,7.96
2023-02-02T12:48:15.077Z,8.11
2023-02-02T12:50:53.928Z,8.15
2023-02-02T12:53:36.522Z,8.11
2023-02-02T12:56:26.634Z,8.08
2023-02-02T12:59:08.422Z,8.11
2023-02-02T13:01:44.777Z,8.03
2023-02-02T13:07:40.088Z,8.26
2023-02-02T13:10:17.373Z,8.23
2023-02-02T13:13:11.894Z,8.30
2023-02-02T13:15:49.159Z,8.29
2023-02-02T13:18:31.101Z,8.29
2023-02-02T13:21:11.553Z,8.23
2023-02-02T13:23:45.766Z,8.23
2023-02-02T13:26:22.219Z,8.26
2023-02-02T13:29:14.369Z,8.36
2023-02-02T13:31:51.820Z,8.53
2023-02-02T13:34:23.046Z,8.41
2023-02-02T13:37:11.195Z,8.32
2023-02-02T13:39:47.934Z,8.28
2023-02-02T13:42:36.521Z,8.28
2023-02-02T13:45:27.658Z,8.32
2023-02-02T13:48:06.360Z,8.32
2023-02-02T13:50:44.266Z,8.10
2023-02-02T13:53:34.606Z,8.18
2023-02-02T13:56:30.808Z,8.01
2023-02-02T13:59:04.826Z,7.96
2023-02-02T14:01:32.398Z,8.04
2023-02-02T14:04:00.784Z,8.13
2023-02-02T14:06:31.594Z,8.10
2023-02-02T14:09:02.049Z,8.00
2023-02-02T14:11:32.757Z,8.07
2023-02-02T14:14:33.447Z,8.13
2023-02-02T14:17:04.336Z,8.11
2023-02-02T14:19:42.095Z,8.18
2023-02-02T14:22:08.940Z,8.36
2023-02-02T14:24:36.988Z,8.27
2023-02-02T14:27:10.072Z,8.41
2023-02-02T14:29:46.983Z,8.42
2023-02-02T14:32:29.310Z,8.30
2023-02-02T14:35:00.139Z,8.34
2023-02-02T14:37:32.105Z,8.27
2023-02-02T14:40:08.721Z,8.27
2023-02-02T14:43:15.285Z,8.19
2023-02-02T14:45:44.227Z,8.30
2023-02-02T14:48:17.132Z,8.25
2023-02-02T14:51:02.184Z,8.28
2023-02-02T14:53:39.776Z,8.36
2023-02-02T14:56:17.623Z,8.28
2023-02-02T14:58:46.981Z,8.21
2023-02-02T15:01:25.986Z,8.24
2023-02-02T15:03:55.402Z,8.24
2023-02-02T15:06:30.362Z,8.28
2023-02-02T15:09:29.364Z,8.35
2023-02-02T15:12:02.183Z,8.19
2023-02-02T15:14:42.672Z,8.22
2023-02-02T15:17:34.860Z,8.26
2023-02-02T15:20:18.077Z,8.15
2023-02-02T15:22:47.577Z,8.18
2023-02-02T15:25:16.931Z,8.15
2023-02-02T15:27:56.987Z,8.23
2023-02-02T15:30:27.554Z,8.14
2023-02-02T15:32:56.027Z,8.12
2023-02-02T15:35:30.874Z,8.15
2023-02-02T15:38:06.585Z,8.15
2023-02-02T15:40:36.903Z,8.12
2023-02-02T15:43:09.321Z,8.11
2023-02-02T15:45:51.068Z,8.07
2023-02-02T15:48:30.031Z,8.09
2023-02-02T15:51:00.093Z,8.13
2023-02-02T15:53:49.191Z,8.08
2023-02-02T15:56:23.123Z,8.07
2023-02-02T15:58:52.215Z,8.10
2023-02-02T16:01:21.513Z,8.09
2023-02-02T16:03:51.169Z,8.09
2023-02-02T16:06:19.206Z,8.14
2023-02-02T16:08:46.618Z,8.08
2023-02-02T16:11:19.312Z,8.05
2023-02-02T16:14:01.450Z,8.04
2023-02-02T16:16:37.009Z,7.99
2023-02-02T16:19:08.900Z,7.96
2023-02-02T16:21:41.801Z,7.99
2023-02-02T16:24:15.612Z,8.05
2023-02-02T16:26:42.629Z,8.00
2023-02-02T16:29:18.449Z,8.09
2023-02-02T16:31:47.285Z,8.12
2023-02-02T16:34:36.792Z,8.17
2023-02-02T16:37:16.609Z,8.13
2023-02-02T16:39:43.741Z,8.19
2023-02-02T16:42:28.953Z,8.27
2023-02-02T16:44:59.911Z,8.26
2023-02-02T16:47:27.342Z,8.31
2023-02-02T16:50:19.728Z,8.34
2023-02-02T16:52:54.027Z,8.42
2023-02-02T16:55:22.040Z,8.36
2023-02-02T16:57:50.458Z,8.36
2023-02-02T17:00:23.244Z,8.36
2023-02-02T17:02:55.918Z,8.41
2023-02-02T17:05:29.969Z,8.42
2023-02-02T17:08:04.539Z,8.39
2023-02-02T17:11:18.937Z,8.42
2023-02-02T17:13:45.940Z,8.45
2023-02-02T17:16:16.697Z,8.49
2023-02-02T17:18:43.947Z,8.50
2023-02-02T17:21:19.926Z,8.51
2023-02-02T17:23:47.221Z,8.57
2023-02-02T17:26:14.289Z,8.56
2023-02-02T17:28:42.065Z,8.61
2023-02-02T17:31:11.752Z,8.60
2023-02-02T17:33:39.514Z,8.52
2023-02-02T17:36:06.616Z,8.55
2023-02-02T17:38:33.727Z,8.57
2023-02-02T17:41:02.287Z,8.56
2023-02-02T17:43:30.322Z,8.56
2023-02-02T17:45:57.672Z,8.53
2023-02-02T17:48:24.401Z,8.54
2023-02-02T17:50:51.411Z,8.51
2023-02-02T17:53:20.494Z,8.53
2023-02-02T17:55:49.870Z,8.52
2023-02-02T17:58:18.130Z,8.56
2023-02-02T18:00:53.382Z,8.55
2023-02-02T18:03:34.277Z,8.50
2023-02-02T18:06:02.328Z,8.48
2023-02-02T18:08:29.955Z,8.50
2023-02-02T18:10:58.129Z,8.49
2023-02-02T18:13:27.149Z,8.51
2023-02-02T18:15:56.436Z,8.47
2023-02-02T18:18:23.539Z,8.49
2023-02-02T18:20:50.729Z,8.46
2023-02-02T18:23:19.085Z,8.43
2023-02-02T18:25:46.118Z,8.45
2023-02-02T18:28:17.112Z,8.45
2023-02-02T18:30:45.417Z,8.47
2023-02-02T18:33:13.597Z,8.45
2023-02-02T18:35:44.946Z,8.46
2023-02-02T18:38:11.712Z,8.41
2023-02-02T18:40:38.614Z,8.33
2023-02-02T18:43:05.483Z,8.33
2023-02-02T18:45:32.268Z,8.29
2023-02-02T18:47:59.179Z,8.31
2023-02-02T18:50:26.062Z,8.31
2023-02-02T18:52:52.795Z,8.25
2023-02-02T18:55:19.739Z,8.28
2023-02-02T18:57:46.418Z,8.28
2023-02-02T19:00:13.571Z,8.28
2023-02-02T19:02:40.237Z,8.27
2023-02-02T19:05:26.634Z,8.27
2023-02-02T19:07:56.681Z,8.20
2023-02-02T19:10:26.159Z,8.17
2023-02-02T19:12:58.719Z,8.16
2023-02-02T19:15:27.054Z,8.19
2023-02-02T19:17:55.428Z,8.11
2023-02-02T19:20:30.791Z,8.12
2023-02-02T19:23:10.143Z,8.08
2023-02-02T19:25:36.908Z,8.10
2023-02-02T19:28:17.187Z,8.08
2023-02-02T19:30:45.548Z,8.04
2023-02-02T19:33:14.441Z,8.06
2023-02-02T19:35:45.186Z,8.13
2023-02-02T19:38:16.588Z,8.11
2023-02-02T19:40:43.992Z,8.11
2023-02-02T19:43:10.627Z,8.11
2023-02-02T19:45:39.760Z,8.03
2023-02-02T19:48:19.622Z,8.12
2023-02-02T19:50:47.078Z,8.15
2023-02-02T19:53:40.981Z,8.09
2023-02-02T19:56:39.964Z,8.11
2023-02-02T19:59:16.283Z,8.11
2023-02-02T20:01:46.126Z,8.17
2023-02-02T20:04:15.482Z,8.18
2023-02-02T20:06:56.670Z,8.19
2023-02-02T20:09:26.148Z,8.17
2023-02-02T20:11:56.784Z,8.18
2023-02-02T20:14:32.218Z,8.19
2023-02-02T20:17:14.300Z,8.15
2023-02-02T20:19:45.584Z,8.22
2023-02-02T20:22:29.794Z,8.18
2023-02-02T20:24:58.267Z,8.14
2023-02-02T20:27:29.383Z,8.19
2023-02-02T20:30:07.348Z,8.23
2023-02-02T20:32:40.239Z,8.21
2023-02-02T20:35:24.974Z,8.18
2023-02-02T20:37:51.858Z,8.18
2023-02-02T20:40:27.937Z,8.21
2023-02-02T20:42:55.008Z,8.19
2023-02-02T20:45:22.119Z,8.14
2023-02-02T20:47:49.725Z,8.20
2023-02-02T20:50:19.281Z,8.22
2023-02-02T20:52:46.225Z,8.14
2023-02-02T20:55:13.264Z,8.14
2023-02-02T20:57:40.348Z,8.18
2023-02-02T21:00:08.767Z,8.13
2023-02-02T21:02:35.658Z,8.11
2023-02-02T21:05:02.480Z,8.12
2023-02-02T21:07:29.509Z,8.01
2023-02-02T21:09:56.539Z,8.07
2023-02-02T21:12:25.811Z,8.05
2023-02-02T21:14:54.019Z,8.03
2023-02-02T21:17:20.976Z,8.10
2023-02-02T21:19:47.693Z,8.02
2023-02-02T21:22:14.640Z,8.03
2023-02-02T21:24:42.832Z,8.10
2023-02-02T21:27:10.081Z,8.08
2023-02-02T21:29:37.116Z,8.04
2023-02-02T21:32:04.262Z,8.00
2023-02-02T21:34:31.449Z,8.00
2023-02-02T21:36:59.172Z,7.99
2023-02-02T21:39:31.995Z,8.02
2023-02-02T21:42:07.568Z,7.99
2023-02-02T21:44:39.741Z,7.97
2023-02-02T21:47:28.613Z,8.00
2023-02-02T21:49:59.393Z,7.97
2023-02-02T21:52:32.379Z,7.99
2023-02-02T21:55:00.183Z,7.95
2023-02-02T21:57:36.664Z,8.03
2023-02-02T22:00:23.188Z,8.04
2023-02-02T22:02:51.305Z,7.95
2023-02-02T22:05:24.330Z,7.97
2023-02-02T22:07:53.555Z,8.00
2023-02-02T22:11:56.024Z,7.99
2023-02-02T22:14:29.882Z,8.00
2023-02-02T22:16:59.042Z,7.97
2023-02-02T22:19:35.219Z,8.00
2023-02-02T22:22:13.303Z,7.98
2023-02-02T22:24:40.454Z,8.03
2023-02-02T22:27:23.465Z,8.04
2023-02-02T22:29:58.404Z,8.02
2023-02-02T22:32:25.142Z,7.99
2023-02-02T22:34:52.071Z,8.06
2023-02-02T22:37:18.819Z,8.02
2023-02-02T22:39:45.733Z,8.00
2023-02-02T22:42:12.419Z,7.99
2023-02-02T22:44:39.196Z,8.01
2023-02-02T22:47:05.903Z,8.06
2023-02-02T22:49:32.603Z,8.09
2023-02-02T22:51:59.583Z,8.03
2023-02-02T22:54:26.793Z,7.98
2023-02-02T22:56:53.593Z,8.02
2023-02-02T22:59:20.204Z,8.03
2023-02-02T23:01:47.017Z,8.07
2023-02-02T23:04:14.169Z,7.99
2023-02-02T23:06:40.940Z,8.00
2023-02-02T23:09:11.270Z,8.00
2023-02-02T23:11:38.293Z,7.93
2023-02-02T23:14:05.274Z,7.90
2023-02-02T23:16:32.331Z,7.85
2023-02-02T23:19:02.733Z,7.93
2023-02-02T23:21:29.725Z,7.89
2023-02-02T23:23:56.952Z,7.90
2023-02-02T23:26:24.689Z,7.90
2023-02-02T23:28:51.578Z,7.87
2023-02-02T23:31:21.342Z,7.79
2023-02-02T23:33:48.018Z,7.86
2023-02-02T23:36:14.765Z,7.90
2023-02-02T23:38:41.482Z,7.89
2023-02-02T23:41:08.142Z,7.97
2023-02-02T23:43:34.917Z,7.96
2023-02-02T23:46:01.712Z,7.99
2023-02-02T23:48:28.913Z,8.02
2023-02-02T23:50:55.962Z,8.09
2023-02-02T23:53:22.827Z,8.14
2023-02-02T23:55:49.796Z,8.04
2023-02-02T23:58:16.532Z,8.17
